Theodore Francis Green State Airport Providence US
ICAO: KPVD
IATA: PVD
Category: Medium
Scheduled Services: Yes

Elevation: 55 ft
TransAlt. 18000 ft.

Airport Communications:
PROVIDENCE APP/DEP:135.4
ATIS:124.2
CLNC DEL:126.65
CTAF:120.7
PROVIDENCE GND:121.9
BRIDGEPORT RDO:122.6
PROVIDENCE TWR:120.7

KPVD Zoom In..

If you have problems with the map follow the link
https://www.worldairports.se/pages/airport.php?
ICAO=KPVD

Runways:

(A) RW 05 length 7166 ft width 150 ft
ILS 109.30 / hdg 47

(B) RW 16 length 6081 ft width 150 ft
---- / hdg 157

(C) RW 23 length 7166 ft width 150 ft
ILS 109.30 / hdg 227

(D) RW 34 length 6081 ft width 150 ft
ILS 111.50 / hdg 337

Location; KPVD
Day. 10 / Time. 02.13 Zulu
* Altimeter: 29.78
* Temperature: 14° c. 57.2°f.
* Wind from: 210° Speed 13 kn.
Dewpoint: 14° c.
Visibility: 5 Statute Miles.
Clouds: Scattered 900 ft.
Clouds: Overcast 1400 ft.
Conditions: Rain.Conditions: Mist.

KPVD 100213Z 21013KT 5SM RA BR SCT009 OVC014 14/14 A2978 RMK AO2 P0011 T01440139


Wind From 210°
Speed 13 kn.

 
 
jpsmedia worldairports.se 2019   terms of use